sensor_id;sensor_type;location;lat;lon;timestamp;P1;durP1;ratioP1;P2;durP2;ratioP2
24867;SDS011;12941;48.698;9.310;2023-07-28T00:00:22;4;;;3.2;;
24867;SDS011;12941;48.698;9.310;2023-07-28T00:01:23;3;;;2.8;;
24867;SDS011;12941;48.698;9.310;2023-07-28T00:02:27;3;;;2.8;;
24867;SDS011;12941;48.698;9.310;2023-07-28T00:03:27;3;;;2.8;;
24867;SDS011;12941;48.698;9.310;2023-07-28T00:04:33;3;;;2.8;;
24867;SDS011;12941;48.698;9.310;2023-07-28T00:05:32;3;;;2.8;;
24867;SDS011;12941;48.698;9.310;2023-07-28T00:06:32;4.1;;;2.9;;
24867;SDS011;12941;48.698;9.310;2023-07-28T00:07:32;4.1;;;2.9;;
24867;SDS011;12941;48.698;9.310;2023-07-28T00:08:32;4.1;;;2.9;;
24867;SDS011;12941;48.698;9.310;2023-07-28T00:09:32;4.1;;;2.9;;
24867;SDS011;12941;48.698;9.310;2023-07-28T00:10:39;4.1;;;2.9;;
24867;SDS011;12941;48.698;9.310;2023-07-28T00:11:38;3.9;;;3.1;;
24867;SDS011;12941;48.698;9.310;2023-07-28T00:12:37;3.9;;;3.1;;
24867;SDS011;12941;48.698;9.310;2023-07-28T00:13:43;3.9;;;3.1;;
24867;SDS011;12941;48.698;9.310;2023-07-28T00:14:43;3.9;;;3.1;;
24867;SDS011;12941;48.698;9.310;2023-07-28T00:15:43;3.9;;;3.1;;
24867;SDS011;12941;48.698;9.310;2023-07-28T00:16:47;3.7;;;3.1;;
24867;SDS011;12941;48.698;9.310;2023-07-28T00:17:48;3.7;;;3.1;;
24867;SDS011;12941;48.698;9.310;2023-07-28T00:18:48;3.7;;;3.1;;
24867;SDS011;12941;48.698;9.310;2023-07-28T00:19:53;3.7;;;3.1;;
24867;SDS011;12941;48.698;9.310;2023-07-28T00:20:58;3.7;;;3.1;;
24867;SDS011;12941;48.698;9.310;2023-07-28T00:22:02;4.1;;;3.1;;
24867;SDS011;12941;48.698;9.310;2023-07-28T00:23:02;4.1;;;3.1;;
24867;SDS011;12941;48.698;9.310;2023-07-28T00:24:03;4.1;;;3.1;;
24867;SDS011;12941;48.698;9.310;2023-07-28T00:25:08;4.1;;;3.1;;
24867;SDS011;12941;48.698;9.310;2023-07-28T00:26:08;4.1;;;3.1;;
24867;SDS011;12941;48.698;9.310;2023-07-28T00:27:13;4.5;;;3.2;;
24867;SDS011;12941;48.698;9.310;2023-07-28T00:28:18;4.5;;;3.2;;
24867;SDS011;12941;48.698;9.310;2023-07-28T00:29:18;4.5;;;3.2;;
24867;SDS011;12941;48.698;9.310;2023-07-28T00:30:23;4.5;;;3.2;;
24867;SDS011;12941;48.698;9.310;2023-07-28T00:31:23;4.7;;;3.4;;
24867;SDS011;12941;48.698;9.310;2023-07-28T00:32:23;4.7;;;3.4;;
24867;SDS011;12941;48.698;9.310;2023-07-28T00:33:28;4.7;;;3.4;;
24867;SDS011;12941;48.698;9.310;2023-07-28T00:34:28;4.7;;;3.4;;
24867;SDS011;12941;48.698;9.310;2023-07-28T00:35:33;4.7;;;3.4;;
24867;SDS011;12941;48.698;9.310;2023-07-28T00:36:38;3.4;;;2.9;;
24867;SDS011;12941;48.698;9.310;2023-07-28T00:37:38;3.4;;;2.9;;
24867;SDS011;12941;48.698;9.310;2023-07-28T00:38:43;3.4;;;2.9;;
24867;SDS011;12941;48.698;9.310;2023-07-28T00:39:48;3.4;;;2.9;;
24867;SDS011;12941;48.698;9.310;2023-07-28T00:40:48;3.4;;;2.9;;
24867;SDS011;12941;48.698;9.310;2023-07-28T00:41:53;4.1;;;3;;
24867;SDS011;12941;48.698;9.310;2023-07-28T00:42:58;4.1;;;3;;
24867;SDS011;12941;48.698;9.310;2023-07-28T00:44:03;4.1;;;3;;
24867;SDS011;12941;48.698;9.310;2023-07-28T00:45:03;4.1;;;3;;
24867;SDS011;12941;48.698;9.310;2023-07-28T00:46:03;4.1;;;3;;
24867;SDS011;12941;48.698;9.310;2023-07-28T00:47:08;3.9;;;2.9;;
24867;SDS011;12941;48.698;9.310;2023-07-28T00:48:09;3.9;;;2.9;;
24867;SDS011;12941;48.698;9.310;2023-07-28T00:49:13;3.9;;;2.9;;
24867;SDS011;12941;48.698;9.310;2023-07-28T00:50:18;3.9;;;2.9;;
24867;SDS011;12941;48.698;9.310;2023-07-28T00:51:18;3.9;;;2.9;;
24867;SDS011;12941;48.698;9.310;2023-07-28T00:52:18;3.5;;;3.1;;
24867;SDS011;12941;48.698;9.310;2023-07-28T00:53:24;3.5;;;3.1;;
24867;SDS011;12941;48.698;9.310;2023-07-28T00:54:28;3.5;;;3.1;;
24867;SDS011;12941;48.698;9.310;2023-07-28T00:55:28;3.5;;;3.1;;
24867;SDS011;12941;48.698;9.310;2023-07-28T00:56:33;3.2;;;2.9;;
24867;SDS011;12941;48.698;9.310;2023-07-28T00:57:33;3.2;;;2.9;;
24867;SDS011;12941;48.698;9.310;2023-07-28T00:58:33;3.2;;;2.9;;
24867;SDS011;12941;48.698;9.310;2023-07-28T00:59:38;3.2;;;2.9;;
24867;SDS011;12941;48.698;9.310;2023-07-28T01:00:43;3.2;;;2.9;;
24867;SDS011;12941;48.698;9.310;2023-07-28T01:01:48;4.3;;;3;;
24867;SDS011;12941;48.698;9.310;2023-07-28T01:02:48;4.3;;;3;;
24867;SDS011;12941;48.698;9.310;2023-07-28T01:03:48;4.3;;;3;;
24867;SDS011;12941;48.698;9.310;2023-07-28T01:04:53;4.3;;;3;;
24867;SDS011;12941;48.698;9.310;2023-07-28T01:05:55;4.3;;;3;;
24867;SDS011;12941;48.698;9.310;2023-07-28T01:07:01;3.6;;;2.9;;
24867;SDS011;12941;48.698;9.310;2023-07-28T01:07:59;3.6;;;2.9;;
24867;SDS011;12941;48.698;9.310;2023-07-28T01:09:04;3.6;;;2.9;;
24867;SDS011;12941;48.698;9.310;2023-07-28T01:10:10;3.6;;;2.9;;
24867;SDS011;12941;48.698;9.310;2023-07-28T01:11:08;3.6;;;2.9;;
24867;SDS011;12941;48.698;9.310;2023-07-28T01:12:14;3.7;;;3.1;;
24867;SDS011;12941;48.698;9.310;2023-07-28T01:13:14;3.7;;;3.1;;
24867;SDS011;12941;48.698;9.310;2023-07-28T01:14:18;3.7;;;3.1;;
24867;SDS011;12941;48.698;9.310;2023-07-28T01:15:18;3.7;;;3.1;;
24867;SDS011;12941;48.698;9.310;2023-07-28T01:16:23;4;;;2.9;;
24867;SDS011;12941;48.698;9.310;2023-07-28T01:17:24;4;;;2.9;;
24867;SDS011;12941;48.698;9.310;2023-07-28T01:18:28;4;;;2.9;;
24867;SDS011;12941;48.698;9.310;2023-07-28T01:19:28;4;;;2.9;;
24867;SDS011;12941;48.698;9.310;2023-07-28T01:20:34;4;;;2.9;;
24867;SDS011;12941;48.698;9.310;2023-07-28T01:21:34;3.2;;;2.8;;
24867;SDS011;12941;48.698;9.310;2023-07-28T01:22:39;3.2;;;2.8;;
24867;SDS011;12941;48.698;9.310;2023-07-28T01:23:41;3.2;;;2.8;;
24867;SDS011;12941;48.698;9.310;2023-07-28T01:24:41;3.2;;;2.8;;
24867;SDS011;12941;48.698;9.310;2023-07-28T01:25:47;3.2;;;2.8;;
24867;SDS011;12941;48.698;9.310;2023-07-28T01:26:44;3.2;;;2.9;;
24867;SDS011;12941;48.698;9.310;2023-07-28T01:27:49;3.2;;;2.9;;
24867;SDS011;12941;48.698;9.310;2023-07-28T01:28:49;3.2;;;2.9;;
24867;SDS011;12941;48.698;9.310;2023-07-28T01:29:54;3.2;;;2.9;;
24867;SDS011;12941;48.698;9.310;2023-07-28T01:30:54;3.2;;;2.9;;
24867;SDS011;12941;48.698;9.310;2023-07-28T01:31:59;2.8;;;2.6;;
24867;SDS011;12941;48.698;9.310;2023-07-28T01:32:59;2.8;;;2.6;;
24867;SDS011;12941;48.698;9.310;2023-07-28T01:33:59;2.8;;;2.6;;
24867;SDS011;12941;48.698;9.310;2023-07-28T01:35:04;2.8;;;2.6;;
24867;SDS011;12941;48.698;9.310;2023-07-28T01:36:09;2.8;;;2.6;;
24867;SDS011;12941;48.698;9.310;2023-07-28T01:37:09;3.6;;;3.2;;
24867;SDS011;12941;48.698;9.310;2023-07-28T01:38:14;3.6;;;3.2;;
24867;SDS011;12941;48.698;9.310;2023-07-28T01:39:19;3.6;;;3.2;;
24867;SDS011;12941;48.698;9.310;2023-07-28T01:40:19;3.6;;;3.2;;
24867;SDS011;12941;48.698;9.310;2023-07-28T01:41:23;3.6;;;2.9;;
24867;SDS011;12941;48.698;9.310;2023-07-28T01:42:24;3.6;;;2.9;;
24867;SDS011;12941;48.698;9.310;2023-07-28T01:43:29;3.6;;;2.9;;
24867;SDS011;12941;48.698;9.310;2023-07-28T01:44:34;3.6;;;2.9;;
24867;SDS011;12941;48.698;9.310;2023-07-28T01:45:39;3.6;;;2.9;;
24867;SDS011;12941;48.698;9.310;2023-07-28T01:46:39;4.3;;;2.9;;
24867;SDS011;12941;48.698;9.310;2023-07-28T01:47:44;4.3;;;2.9;;
24867;SDS011;12941;48.698;9.310;2023-07-28T01:48:49;4.3;;;2.9;;
24867;SDS011;12941;48.698;9.310;2023-07-28T01:49:54;4.3;;;2.9;;
24867;SDS011;12941;48.698;9.310;2023-07-28T01:50:59;4.3;;;2.9;;
24867;SDS011;12941;48.698;9.310;2023-07-28T01:51:59;2.6;;;2.4;;
24867;SDS011;12941;48.698;9.310;2023-07-28T01:53:00;2.6;;;2.4;;
24867;SDS011;12941;48.698;9.310;2023-07-28T01:54:04;2.6;;;2.4;;
24867;SDS011;12941;48.698;9.310;2023-07-28T01:55:09;2.6;;;2.4;;
24867;SDS011;12941;48.698;9.310;2023-07-28T01:56:14;2.6;;;2.4;;
24867;SDS011;12941;48.698;9.310;2023-07-28T01:57:19;3.7;;;2.8;;
24867;SDS011;12941;48.698;9.310;2023-07-28T01:58:24;3.7;;;2.8;;
24867;SDS011;12941;48.698;9.310;2023-07-28T01:59:24;3.7;;;2.8;;
24867;SDS011;12941;48.698;9.310;2023-07-28T02:00:24;3.7;;;2.8;;
24867;SDS011;12941;48.698;9.310;2023-07-28T02:01:24;3.5;;;2.6;;
24867;SDS011;12941;48.698;9.310;2023-07-28T02:02:29;3.5;;;2.6;;
24867;SDS011;12941;48.698;9.310;2023-07-28T02:03:34;3.5;;;2.6;;
24867;SDS011;12941;48.698;9.310;2023-07-28T02:04:34;3.5;;;2.6;;
24867;SDS011;12941;48.698;9.310;2023-07-28T02:05:34;3.5;;;2.6;;
24867;SDS011;12941;48.698;9.310;2023-07-28T02:06:39;4.4;;;3.1;;
24867;SDS011;12941;48.698;9.310;2023-07-28T02:07:39;4.4;;;3.1;;
24867;SDS011;12941;48.698;9.310;2023-07-28T02:08:44;4.4;;;3.1;;
24867;SDS011;12941;48.698;9.310;2023-07-28T02:09:44;4.4;;;3.1;;
24867;SDS011;12941;48.698;9.310;2023-07-28T02:10:44;4.4;;;3.1;;
24867;SDS011;12941;48.698;9.310;2023-07-28T02:11:49;4.2;;;2.9;;
24867;SDS011;12941;48.698;9.310;2023-07-28T02:12:54;4.2;;;2.9;;
24867;SDS011;12941;48.698;9.310;2023-07-28T02:13:54;4.2;;;2.9;;
24867;SDS011;12941;48.698;9.310;2023-07-28T02:14:54;4.2;;;2.9;;
24867;SDS011;12941;48.698;9.310;2023-07-28T02:15:58;4.2;;;2.9;;
24867;SDS011;12941;48.698;9.310;2023-07-28T02:17:00;3;;;2.6;;
24867;SDS011;12941;48.698;9.310;2023-07-28T02:18:04;3;;;2.6;;
24867;SDS011;12941;48.698;9.310;2023-07-28T02:19:09;3;;;2.6;;
24867;SDS011;12941;48.698;9.310;2023-07-28T02:20:10;3;;;2.6;;
24867;SDS011;12941;48.698;9.310;2023-07-28T02:21:14;3;;;2.6;;
24867;SDS011;12941;48.698;9.310;2023-07-28T02:22:19;3.4;;;2.7;;
24867;SDS011;12941;48.698;9.310;2023-07-28T02:23:24;3.4;;;2.7;;
24867;SDS011;12941;48.698;9.310;2023-07-28T02:24:24;3.4;;;2.7;;
24867;SDS011;12941;48.698;9.310;2023-07-28T02:25:29;3.4;;;2.7;;
24867;SDS011;12941;48.698;9.310;2023-07-28T02:26:29;3.9;;;2.8;;
24867;SDS011;12941;48.698;9.310;2023-07-28T02:27:30;3.9;;;2.8;;
24867;SDS011;12941;48.698;9.310;2023-07-28T02:28:34;3.9;;;2.8;;
24867;SDS011;12941;48.698;9.310;2023-07-28T02:29:39;3.9;;;2.8;;
24867;SDS011;12941;48.698;9.310;2023-07-28T02:30:44;3.9;;;2.8;;
24867;SDS011;12941;48.698;9.310;2023-07-28T02:31:44;3.3;;;2.7;;
24867;SDS011;12941;48.698;9.310;2023-07-28T02:32:44;3.3;;;2.7;;
24867;SDS011;12941;48.698;9.310;2023-07-28T02:33:44;3.3;;;2.7;;
24867;SDS011;12941;48.698;9.310;2023-07-28T02:34:44;3.3;;;2.7;;
24867;SDS011;12941;48.698;9.310;2023-07-28T02:35:50;3.3;;;2.7;;
24867;SDS011;12941;48.698;9.310;2023-07-28T02:36:54;3.4;;;2.3;;
24867;SDS011;12941;48.698;9.310;2023-07-28T02:38:00;3.4;;;2.3;;
24867;SDS011;12941;48.698;9.310;2023-07-28T02:39:00;3.4;;;2.3;;
24867;SDS011;12941;48.698;9.310;2023-07-28T02:40:00;3.4;;;2.3;;
24867;SDS011;12941;48.698;9.310;2023-07-28T02:41:00;3.4;;;2.3;;
24867;SDS011;12941;48.698;9.310;2023-07-28T02:42:05;2.9;;;2.6;;
24867;SDS011;12941;48.698;9.310;2023-07-28T02:43:10;2.9;;;2.6;;
24867;SDS011;12941;48.698;9.310;2023-07-28T02:44:14;2.9;;;2.6;;
24867;SDS011;12941;48.698;9.310;2023-07-28T02:45:14;2.9;;;2.6;;
24867;SDS011;12941;48.698;9.310;2023-07-28T02:46:14;2.9;;;2.6;;
24867;SDS011;12941;48.698;9.310;2023-07-28T02:47:15;3.7;;;2.8;;
24867;SDS011;12941;48.698;9.310;2023-07-28T02:48:20;3.7;;;2.8;;
24867;SDS011;12941;48.698;9.310;2023-07-28T02:49:25;3.7;;;2.8;;
24867;SDS011;12941;48.698;9.310;2023-07-28T02:50:30;3.7;;;2.8;;
24867;SDS011;12941;48.698;9.310;2023-07-28T02:51:34;3.1;;;2.8;;
24867;SDS011;12941;48.698;9.310;2023-07-28T02:52:35;3.1;;;2.8;;
24867;SDS011;12941;48.698;9.310;2023-07-28T02:53:35;3.1;;;2.8;;
24867;SDS011;12941;48.698;9.310;2023-07-28T02:54:35;3.1;;;2.8;;
24867;SDS011;12941;48.698;9.310;2023-07-28T02:55:40;3.1;;;2.8;;
24867;SDS011;12941;48.698;9.310;2023-07-28T02:56:40;4;;;2.8;;
24867;SDS011;12941;48.698;9.310;2023-07-28T02:57:40;4;;;2.8;;
24867;SDS011;12941;48.698;9.310;2023-07-28T02:58:45;4;;;2.8;;
24867;SDS011;12941;48.698;9.310;2023-07-28T02:59:50;4;;;2.8;;
24867;SDS011;12941;48.698;9.310;2023-07-28T03:00:51;4;;;2.8;;
24867;SDS011;12941;48.698;9.310;2023-07-28T03:01:55;3.3;;;2.6;;
24867;SDS011;12941;48.698;9.310;2023-07-28T03:02:55;3.3;;;2.6;;
24867;SDS011;12941;48.698;9.310;2023-07-28T03:03:55;3.3;;;2.6;;
24867;SDS011;12941;48.698;9.310;2023-07-28T03:04:55;3.3;;;2.6;;
24867;SDS011;12941;48.698;9.310;2023-07-28T03:05:55;3.3;;;2.6;;
24867;SDS011;12941;48.698;9.310;2023-07-28T03:07:00;4.7;;;2.8;;
24867;SDS011;12941;48.698;9.310;2023-07-28T03:08:00;4.7;;;2.8;;
24867;SDS011;12941;48.698;9.310;2023-07-28T03:09:05;4.7;;;2.8;;
24867;SDS011;12941;48.698;9.310;2023-07-28T03:10:10;4.7;;;2.8;;
24867;SDS011;12941;48.698;9.310;2023-07-28T03:11:10;4.7;;;2.8;;
24867;SDS011;12941;48.698;9.310;2023-07-28T03:12:15;3.1;;;2.7;;
24867;SDS011;12941;48.698;9.310;2023-07-28T03:13:15;3.1;;;2.7;;
24867;SDS011;12941;48.698;9.310;2023-07-28T03:14:15;3.1;;;2.7;;
24867;SDS011;12941;48.698;9.310;2023-07-28T03:15:20;3.1;;;2.7;;
24867;SDS011;12941;48.698;9.310;2023-07-28T03:16:23;4;;;2.9;;
24867;SDS011;12941;48.698;9.310;2023-07-28T03:17:25;4;;;2.9;;
24867;SDS011;12941;48.698;9.310;2023-07-28T03:18:30;4;;;2.9;;
24867;SDS011;12941;48.698;9.310;2023-07-28T03:19:30;4;;;2.9;;
24867;SDS011;12941;48.698;9.310;2023-07-28T03:20:30;4;;;2.9;;
24867;SDS011;12941;48.698;9.310;2023-07-28T03:21:30;3.8;;;2.8;;
24867;SDS011;12941;48.698;9.310;2023-07-28T03:22:35;3.8;;;2.8;;
24867;SDS011;12941;48.698;9.310;2023-07-28T03:23:35;3.8;;;2.8;;
24867;SDS011;12941;48.698;9.310;2023-07-28T03:24:35;3.8;;;2.8;;
24867;SDS011;12941;48.698;9.310;2023-07-28T03:25:40;3.8;;;2.8;;
24867;SDS011;12941;48.698;9.310;2023-07-28T03:26:40;4;;;2.7;;
24867;SDS011;12941;48.698;9.310;2023-07-28T03:27:45;4;;;2.7;;
24867;SDS011;12941;48.698;9.310;2023-07-28T03:28:45;4;;;2.7;;
24867;SDS011;12941;48.698;9.310;2023-07-28T03:29:45;4;;;2.7;;
24867;SDS011;12941;48.698;9.310;2023-07-28T03:30:50;4;;;2.7;;
24867;SDS011;12941;48.698;9.310;2023-07-28T03:31:50;3.3;;;2.8;;
24867;SDS011;12941;48.698;9.310;2023-07-28T03:32:55;3.3;;;2.8;;
24867;SDS011;12941;48.698;9.310;2023-07-28T03:34:00;3.3;;;2.8;;
24867;SDS011;12941;48.698;9.310;2023-07-28T03:35:00;3.3;;;2.8;;
24867;SDS011;12941;48.698;9.310;2023-07-28T03:36:00;3.3;;;2.8;;
24867;SDS011;12941;48.698;9.310;2023-07-28T03:37:05;2.9;;;2.6;;
24867;SDS011;12941;48.698;9.310;2023-07-28T03:38:05;2.9;;;2.6;;
24867;SDS011;12941;48.698;9.310;2023-07-28T03:39:10;2.9;;;2.6;;
24867;SDS011;12941;48.698;9.310;2023-07-28T03:40:15;2.9;;;2.6;;
24867;SDS011;12941;48.698;9.310;2023-07-28T03:41:15;2.9;;;2.6;;
24867;SDS011;12941;48.698;9.310;2023-07-28T03:42:20;3.7;;;3;;
24867;SDS011;12941;48.698;9.310;2023-07-28T03:43:20;3.7;;;3;;
24867;SDS011;12941;48.698;9.310;2023-07-28T03:44:20;3.7;;;3;;
24867;SDS011;12941;48.698;9.310;2023-07-28T03:45:20;3.7;;;3;;
24867;SDS011;12941;48.698;9.310;2023-07-28T03:46:23;3.7;;;2.7;;
24867;SDS011;12941;48.698;9.310;2023-07-28T03:47:25;3.7;;;2.7;;
24867;SDS011;12941;48.698;9.310;2023-07-28T03:48:30;3.7;;;2.7;;
24867;SDS011;12941;48.698;9.310;2023-07-28T03:49:35;3.7;;;2.7;;
24867;SDS011;12941;48.698;9.310;2023-07-28T03:50:35;3.7;;;2.7;;
24867;SDS011;12941;48.698;9.310;2023-07-28T03:51:40;3.5;;;2.4;;
24867;SDS011;12941;48.698;9.310;2023-07-28T03:52:40;3.5;;;2.4;;
24867;SDS011;12941;48.698;9.310;2023-07-28T03:53:45;3.5;;;2.4;;
24867;SDS011;12941;48.698;9.310;2023-07-28T03:54:45;3.5;;;2.4;;
24867;SDS011;12941;48.698;9.310;2023-07-28T03:55:50;3.5;;;2.4;;
24867;SDS011;12941;48.698;9.310;2023-07-28T03:56:55;2.7;;;2.3;;
24867;SDS011;12941;48.698;9.310;2023-07-28T03:57:55;2.7;;;2.3;;
24867;SDS011;12941;48.698;9.310;2023-07-28T03:59:01;2.7;;;2.3;;
24867;SDS011;12941;48.698;9.310;2023-07-28T04:00:06;2.7;;;2.3;;
24867;SDS011;12941;48.698;9.310;2023-07-28T04:01:11;2.7;;;2.3;;
24867;SDS011;12941;48.698;9.310;2023-07-28T04:02:15;3.5;;;2.3;;
24867;SDS011;12941;48.698;9.310;2023-07-28T04:03:20;3.5;;;2.3;;
24867;SDS011;12941;48.698;9.310;2023-07-28T04:04:25;3.5;;;2.3;;
24867;SDS011;12941;48.698;9.310;2023-07-28T04:05:25;3.5;;;2.3;;
24867;SDS011;12941;48.698;9.310;2023-07-28T04:06:39;2.8;;;2.5;;
24867;SDS011;12941;48.698;9.310;2023-07-28T04:07:35;2.8;;;2.5;;
24867;SDS011;12941;48.698;9.310;2023-07-28T04:08:40;2.8;;;2.5;;
24867;SDS011;12941;48.698;9.310;2023-07-28T04:09:40;2.8;;;2.5;;
24867;SDS011;12941;48.698;9.310;2023-07-28T04:10:46;2.8;;;2.5;;
24867;SDS011;12941;48.698;9.310;2023-07-28T04:11:51;4.2;;;2.7;;
24867;SDS011;12941;48.698;9.310;2023-07-28T04:12:55;4.2;;;2.7;;
24867;SDS011;12941;48.698;9.310;2023-07-28T04:13:56;4.2;;;2.7;;
24867;SDS011;12941;48.698;9.310;2023-07-28T04:15:00;4.2;;;2.7;;
24867;SDS011;12941;48.698;9.310;2023-07-28T04:16:00;4.2;;;2.7;;
24867;SDS011;12941;48.698;9.310;2023-07-28T04:17:01;4.4;;;3;;
24867;SDS011;12941;48.698;9.310;2023-07-28T04:18:05;4.4;;;3;;
24867;SDS011;12941;48.698;9.310;2023-07-28T04:19:06;4.4;;;3;;
24867;SDS011;12941;48.698;9.310;2023-07-28T04:20:11;4.4;;;3;;
24867;SDS011;12941;48.698;9.310;2023-07-28T04:21:16;4.4;;;3;;
24867;SDS011;12941;48.698;9.310;2023-07-28T04:22:16;6;;;2.9;;
24867;SDS011;12941;48.698;9.310;2023-07-28T04:23:16;6;;;2.9;;
24867;SDS011;12941;48.698;9.310;2023-07-28T04:24:20;6;;;2.9;;
24867;SDS011;12941;48.698;9.310;2023-07-28T04:25:26;6;;;2.9;;
24867;SDS011;12941;48.698;9.310;2023-07-28T04:26:26;4.3;;;3;;
24867;SDS011;12941;48.698;9.310;2023-07-28T04:27:30;4.3;;;3;;
24867;SDS011;12941;48.698;9.310;2023-07-28T04:28:30;4.3;;;3;;
24867;SDS011;12941;48.698;9.310;2023-07-28T04:29:30;4.3;;;3;;
24867;SDS011;12941;48.698;9.310;2023-07-28T04:30:36;4.3;;;3;;
24867;SDS011;12941;48.698;9.310;2023-07-28T04:31:41;3.3;;;2.6;;
24867;SDS011;12941;48.698;9.310;2023-07-28T04:32:46;3.3;;;2.6;;
24867;SDS011;12941;48.698;9.310;2023-07-28T04:33:46;3.3;;;2.6;;
24867;SDS011;12941;48.698;9.310;2023-07-28T04:34:50;3.3;;;2.6;;
24867;SDS011;12941;48.698;9.310;2023-07-28T04:35:56;3.3;;;2.6;;
24867;SDS011;12941;48.698;9.310;2023-07-28T04:37:01;2.8;;;2.5;;
24867;SDS011;12941;48.698;9.310;2023-07-28T04:38:06;2.8;;;2.5;;
24867;SDS011;12941;48.698;9.310;2023-07-28T04:39:10;2.8;;;2.5;;
24867;SDS011;12941;48.698;9.310;2023-07-28T04:40:11;2.8;;;2.5;;
24867;SDS011;12941;48.698;9.310;2023-07-28T04:41:11;2.8;;;2.5;;
24867;SDS011;12941;48.698;9.310;2023-07-28T04:42:15;3.7;;;2.9;;
24867;SDS011;12941;48.698;9.310;2023-07-28T04:43:16;3.7;;;2.9;;
24867;SDS011;12941;48.698;9.310;2023-07-28T04:44:21;3.7;;;2.9;;
24867;SDS011;12941;48.698;9.310;2023-07-28T04:45:26;3.7;;;2.9;;
24867;SDS011;12941;48.698;9.310;2023-07-28T04:46:31;3.9;;;2.2;;
24867;SDS011;12941;48.698;9.310;2023-07-28T04:47:36;3.9;;;2.2;;
24867;SDS011;12941;48.698;9.310;2023-07-28T04:48:40;3.9;;;2.2;;
24867;SDS011;12941;48.698;9.310;2023-07-28T04:49:41;3.9;;;2.2;;
24867;SDS011;12941;48.698;9.310;2023-07-28T04:50:41;3.9;;;2.2;;
24867;SDS011;12941;48.698;9.310;2023-07-28T04:51:46;3.3;;;3;;
24867;SDS011;12941;48.698;9.310;2023-07-28T04:52:46;3.3;;;3;;
24867;SDS011;12941;48.698;9.310;2023-07-28T04:53:51;3.3;;;3;;
24867;SDS011;12941;48.698;9.310;2023-07-28T04:54:56;3.3;;;3;;
24867;SDS011;12941;48.698;9.310;2023-07-28T04:56:01;3.3;;;3;;
24867;SDS011;12941;48.698;9.310;2023-07-28T04:57:01;3.1;;;2.8;;
24867;SDS011;12941;48.698;9.310;2023-07-28T04:58:06;3.1;;;2.8;;
24867;SDS011;12941;48.698;9.310;2023-07-28T04:59:11;3.1;;;2.8;;
24867;SDS011;12941;48.698;9.310;2023-07-28T05:00:16;3.1;;;2.8;;
24867;SDS011;12941;48.698;9.310;2023-07-28T05:01:21;2.8;;;2.6;;
24867;SDS011;12941;48.698;9.310;2023-07-28T05:02:21;2.8;;;2.6;;
24867;SDS011;12941;48.698;9.310;2023-07-28T05:03:26;2.8;;;2.6;;
24867;SDS011;12941;48.698;9.310;2023-07-28T05:04:31;2.8;;;2.6;;
24867;SDS011;12941;48.698;9.310;2023-07-28T05:05:36;2.8;;;2.6;;
24867;SDS011;12941;48.698;9.310;2023-07-28T05:06:36;3.6;;;2.8;;
24867;SDS011;12941;48.698;9.310;2023-07-28T05:07:41;3.6;;;2.8;;
24867;SDS011;12941;48.698;9.310;2023-07-28T05:08:41;3.6;;;2.8;;
24867;SDS011;12941;48.698;9.310;2023-07-28T05:09:41;3.6;;;2.8;;
24867;SDS011;12941;48.698;9.310;2023-07-28T05:10:46;3.6;;;2.8;;
24867;SDS011;12941;48.698;9.310;2023-07-28T05:11:46;3.1;;;2.6;;
24867;SDS011;12941;48.698;9.310;2023-07-28T05:12:51;3.1;;;2.6;;
24867;SDS011;12941;48.698;9.310;2023-07-28T05:13:56;3.1;;;2.6;;
24867;SDS011;12941;48.698;9.310;2023-07-28T05:15:01;3.1;;;2.6;;
24867;SDS011;12941;48.698;9.310;2023-07-28T05:16:06;3.1;;;2.6;;
24867;SDS011;12941;48.698;9.310;2023-07-28T05:17:06;3.1;;;2.8;;
24867;SDS011;12941;48.698;9.310;2023-07-28T05:18:06;3.1;;;2.8;;
24867;SDS011;12941;48.698;9.310;2023-07-28T05:19:11;3.1;;;2.8;;
24867;SDS011;12941;48.698;9.310;2023-07-28T05:20:16;3.1;;;2.8;;
24867;SDS011;12941;48.698;9.310;2023-07-28T05:21:21;3.7;;;2.9;;
24867;SDS011;12941;48.698;9.310;2023-07-28T05:22:21;3.7;;;2.9;;
24867;SDS011;12941;48.698;9.310;2023-07-28T05:23:26;3.7;;;2.9;;
24867;SDS011;12941;48.698;9.310;2023-07-28T05:24:26;3.7;;;2.9;;
24867;SDS011;12941;48.698;9.310;2023-07-28T05:25:26;3.7;;;2.9;;
24867;SDS011;12941;48.698;9.310;2023-07-28T05:26:31;3;;;2.7;;
24867;SDS011;12941;48.698;9.310;2023-07-28T05:27:31;3;;;2.7;;
24867;SDS011;12941;48.698;9.310;2023-07-28T05:28:33;3;;;2.7;;
24867;SDS011;12941;48.698;9.310;2023-07-28T05:29:36;3;;;2.7;;
24867;SDS011;12941;48.698;9.310;2023-07-28T05:30:41;3;;;2.7;;
24867;SDS011;12941;48.698;9.310;2023-07-28T05:31:41;4;;;3.1;;
24867;SDS011;12941;48.698;9.310;2023-07-28T05:32:46;4;;;3.1;;
24867;SDS011;12941;48.698;9.310;2023-07-28T05:33:46;4;;;3.1;;
24867;SDS011;12941;48.698;9.310;2023-07-28T05:34:46;4;;;3.1;;
24867;SDS011;12941;48.698;9.310;2023-07-28T05:35:58;4;;;3.1;;
24867;SDS011;12941;48.698;9.310;2023-07-28T05:36:56;4.8;;;2.9;;
24867;SDS011;12941;48.698;9.310;2023-07-28T05:38:01;4.8;;;2.9;;
24867;SDS011;12941;48.698;9.310;2023-07-28T05:39:01;4.8;;;2.9;;
24867;SDS011;12941;48.698;9.310;2023-07-28T05:40:01;4.8;;;2.9;;
24867;SDS011;12941;48.698;9.310;2023-07-28T05:41:02;4.8;;;2.9;;
24867;SDS011;12941;48.698;9.310;2023-07-28T05:42:01;3.4;;;3.1;;
24867;SDS011;12941;48.698;9.310;2023-07-28T05:43:06;3.4;;;3.1;;
24867;SDS011;12941;48.698;9.310;2023-07-28T05:44:11;3.4;;;3.1;;
24867;SDS011;12941;48.698;9.310;2023-07-28T05:45:11;3.4;;;3.1;;
24867;SDS011;12941;48.698;9.310;2023-07-28T05:46:11;3.4;;;3.1;;
24867;SDS011;12941;48.698;9.310;2023-07-28T05:47:11;5.4;;;3.1;;
24867;SDS011;12941;48.698;9.310;2023-07-28T05:48:16;5.4;;;3.1;;
24867;SDS011;12941;48.698;9.310;2023-07-28T05:49:21;5.4;;;3.1;;
24867;SDS011;12941;48.698;9.310;2023-07-28T05:50:21;5.4;;;3.1;;
24867;SDS011;12941;48.698;9.310;2023-07-28T05:51:23;4.9;;;3.3;;
24867;SDS011;12941;48.698;9.310;2023-07-28T05:52:26;4.9;;;3.3;;
24867;SDS011;12941;48.698;9.310;2023-07-28T05:53:31;4.9;;;3.3;;
24867;SDS011;12941;48.698;9.310;2023-07-28T05:54:36;4.9;;;3.3;;
24867;SDS011;12941;48.698;9.310;2023-07-28T05:55:41;4.9;;;3.3;;
24867;SDS011;12941;48.698;9.310;2023-07-28T05:56:46;3.8;;;3.4;;
24867;SDS011;12941;48.698;9.310;2023-07-28T05:57:51;3.8;;;3.4;;
24867;SDS011;12941;48.698;9.310;2023-07-28T05:58:51;3.8;;;3.4;;
24867;SDS011;12941;48.698;9.310;2023-07-28T05:59:51;3.8;;;3.4;;
24867;SDS011;12941;48.698;9.310;2023-07-28T06:00:51;3.8;;;3.4;;
24867;SDS011;12941;48.698;9.310;2023-07-28T06:01:56;3.7;;;3.3;;
24867;SDS011;12941;48.698;9.310;2023-07-28T06:03:01;3.7;;;3.3;;
24867;SDS011;12941;48.698;9.310;2023-07-28T06:04:01;3.7;;;3.3;;
24867;SDS011;12941;48.698;9.310;2023-07-28T06:05:06;3.7;;;3.3;;
24867;SDS011;12941;48.698;9.310;2023-07-28T06:06:12;3.7;;;3.3;;
24867;SDS011;12941;48.698;9.310;2023-07-28T06:07:11;4.8;;;3.5;;
24867;SDS011;12941;48.698;9.310;2023-07-28T06:08:11;4.8;;;3.5;;
24867;SDS011;12941;48.698;9.310;2023-07-28T06:09:11;4.8;;;3.5;;
24867;SDS011;12941;48.698;9.310;2023-07-28T06:10:16;4.8;;;3.5;;
24867;SDS011;12941;48.698;9.310;2023-07-28T06:11:21;4.4;;;3.5;;
24867;SDS011;12941;48.698;9.310;2023-07-28T06:12:21;4.4;;;3.5;;
24867;SDS011;12941;48.698;9.310;2023-07-28T06:13:26;4.4;;;3.5;;
24867;SDS011;12941;48.698;9.310;2023-07-28T06:14:31;4.4;;;3.5;;
24867;SDS011;12941;48.698;9.310;2023-07-28T06:15:38;4.4;;;3.5;;
24867;SDS011;12941;48.698;9.310;2023-07-28T06:16:41;3.7;;;3.3;;
24867;SDS011;12941;48.698;9.310;2023-07-28T06:17:41;3.7;;;3.3;;
24867;SDS011;12941;48.698;9.310;2023-07-28T06:18:41;3.7;;;3.3;;
24867;SDS011;12941;48.698;9.310;2023-07-28T06:19:41;3.7;;;3.3;;
24867;SDS011;12941;48.698;9.310;2023-07-28T06:20:46;3.7;;;3.3;;
24867;SDS011;12941;48.698;9.310;2023-07-28T06:21:46;5;;;3.5;;
24867;SDS011;12941;48.698;9.310;2023-07-28T06:22:46;5;;;3.5;;
24867;SDS011;12941;48.698;9.310;2023-07-28T06:23:51;5;;;3.5;;
24867;SDS011;12941;48.698;9.310;2023-07-28T06:24:51;5;;;3.5;;
24867;SDS011;12941;48.698;9.310;2023-07-28T06:25:56;5;;;3.5;;
24867;SDS011;12941;48.698;9.310;2023-07-28T06:26:56;4.3;;;3.2;;
24867;SDS011;12941;48.698;9.310;2023-07-28T06:28:01;4.3;;;3.2;;
24867;SDS011;12941;48.698;9.310;2023-07-28T06:29:01;4.3;;;3.2;;
24867;SDS011;12941;48.698;9.310;2023-07-28T06:30:01;4.3;;;3.2;;
24867;SDS011;12941;48.698;9.310;2023-07-28T06:31:06;4.3;;;3.2;;
24867;SDS011;12941;48.698;9.310;2023-07-28T06:32:06;3.7;;;3.4;;